createdAt,value
2023-02-18T00:00:29.177Z,23.10
2023-02-18T00:02:59.902Z,23.53
2023-02-18T00:05:34.206Z,23.67
2023-02-18T00:08:04.931Z,24.37
2023-02-18T00:10:36.177Z,26.63
2023-02-18T00:13:06.963Z,26.73
2023-02-18T00:15:41.267Z,26.43
2023-02-18T00:18:12.253Z,26.03
2023-02-18T00:20:43.016Z,26.50
2023-02-18T00:23:13.737Z,25.97
2023-02-18T00:25:46.368Z,24.90
2023-02-18T00:28:17.383Z,26.30
2023-02-18T00:30:50.711Z,27.07
2023-02-18T00:33:21.606Z,25.53
2023-02-18T00:35:53.629Z,26.53
2023-02-18T00:38:24.443Z,25.23
2023-02-18T00:40:55.284Z,26.80
2023-02-18T00:43:26.027Z,25.93
2023-02-18T00:45:59.683Z,26.53
2023-02-18T00:48:30.507Z,25.30
2023-02-18T00:51:02.409Z,26.10
2023-02-18T00:53:35.735Z,26.73
2023-02-18T00:56:08.775Z,27.03
2023-02-18T00:58:40.245Z,26.13
2023-02-18T01:01:14.390Z,27.37
2023-02-18T01:03:46.063Z,28.07
2023-02-18T01:06:17.316Z,27.00
2023-02-18T01:08:48.089Z,27.90
2023-02-18T01:11:19.968Z,27.97
2023-02-18T01:13:50.885Z,26.10
2023-02-18T01:16:24.518Z,27.57
2023-02-18T01:18:57.786Z,26.03
2023-02-18T01:21:28.568Z,26.20
2023-02-18T01:23:59.491Z,27.57
2023-02-18T01:26:30.342Z,25.60
2023-02-18T01:29:01.079Z,25.17
2023-02-18T01:31:34.497Z,26.70
2023-02-18T01:34:05.716Z,26.13
2023-02-18T01:36:36.583Z,24.20
2023-02-18T01:39:08.850Z,24.10
2023-02-18T01:41:39.624Z,22.27
2023-02-18T01:44:18.690Z,21.23
2023-02-18T01:46:52.151Z,25.03
2023-02-18T01:49:27.050Z,21.63
2023-02-18T01:52:02.828Z,22.73
2023-02-18T01:54:39.759Z,23.53
2023-02-18T01:57:14.249Z,23.60
2023-02-18T01:59:51.515Z,21.90
2023-02-18T02:02:31.308Z,21.50
2023-02-18T02:05:02.274Z,21.80
2023-02-18T02:07:34.661Z,21.47
2023-02-18T02:10:06.098Z,21.17
2023-02-18T02:12:48.813Z,22.03
2023-02-18T02:15:30.902Z,19.90
2023-02-18T02:18:34.600Z,20.33
2023-02-18T02:21:38.199Z,19.93
2023-02-18T02:24:32.085Z,20.23
2023-02-18T02:27:22.393Z,17.97
2023-02-18T02:30:18.394Z,18.30
2023-02-18T02:33:22.307Z,18.67
2023-02-18T02:35:59.466Z,18.27
2023-02-18T02:38:39.120Z,17.27
2023-02-18T02:41:25.387Z,16.50
2023-02-18T02:44:14.878Z,16.80
2023-02-18T02:46:50.051Z,17.20
2023-02-18T02:49:39.771Z,16.90
2023-02-18T02:52:20.278Z,17.70
2023-02-18T02:54:51.091Z,16.60
2023-02-18T02:57:50.724Z,16.10
2023-02-18T03:00:27.492Z,15.30
2023-02-18T03:03:21.025Z,14.53
2023-02-18T03:06:10.694Z,14.47
2023-02-18T03:08:54.914Z,12.83
2023-02-18T03:11:26.207Z,13.20
2023-02-18T03:14:08.502Z,11.93
2023-02-18T03:16:47.450Z,11.10
2023-02-18T03:19:27.228Z,12.20
2023-02-18T03:22:02.545Z,11.67
2023-02-18T03:24:45.446Z,10.60
2023-02-18T03:27:20.569Z,9.90
2023-02-18T03:29:58.038Z,9.67
2023-02-18T03:32:30.118Z,10.03
2023-02-18T03:35:04.738Z,10.90
2023-02-18T03:37:38.808Z,10.07
2023-02-18T03:40:16.350Z,10.23
2023-02-18T03:42:47.290Z,10.70
2023-02-18T03:45:18.380Z,10.90
2023-02-18T03:47:49.346Z,11.40
2023-02-18T03:50:20.578Z,10.27
2023-02-18T03:52:51.593Z,9.50
2023-02-18T03:55:24.997Z,10.97
2023-02-18T03:57:59.057Z,10.23
2023-02-18T04:00:29.959Z,10.23
2023-02-18T04:03:01.004Z,9.60
2023-02-18T04:05:34.486Z,9.60
2023-02-18T04:08:05.717Z,10.03
2023-02-18T04:10:39.212Z,9.80
2023-02-18T04:13:10.102Z,10.60
2023-02-18T04:15:40.949Z,10.10
2023-02-18T04:18:11.867Z,9.73
2023-02-18T04:20:46.305Z,10.13
2023-02-18T04:23:17.762Z,10.73
2023-02-18T04:25:53.274Z,10.60
2023-02-18T04:28:24.123Z,11.23
2023-02-18T04:30:54.902Z,10.20
2023-02-18T04:33:25.769Z,10.60
2023-02-18T04:35:59.789Z,10.73
2023-02-18T04:38:30.578Z,10.10
2023-02-18T04:41:04.059Z,10.37
2023-02-18T04:43:34.790Z,10.00
2023-02-18T04:46:06.171Z,10.03
2023-02-18T04:48:40.447Z,9.87
2023-02-18T04:51:11.315Z,9.80
2023-02-18T04:53:43.769Z,9.20
2023-02-18T04:56:24.586Z,8.67
2023-02-18T04:59:14.022Z,7.83
2023-02-18T05:01:55.354Z,8.03
2023-02-18T05:04:26.339Z,6.90
2023-02-18T05:06:57.866Z,6.57
2023-02-18T05:09:28.893Z,6.13
2023-02-18T05:12:02.653Z,5.33
2023-02-18T05:14:34.691Z,5.03
2023-02-18T05:17:08.098Z,4.40
2023-02-18T05:19:38.935Z,4.70
2023-02-18T05:22:09.792Z,4.10
2023-02-18T05:24:40.528Z,3.80
2023-02-18T05:27:13.917Z,3.20
2023-02-18T05:29:45.277Z,2.80
2023-02-18T05:32:16.150Z,3.10
2023-02-18T05:34:46.981Z,2.20
2023-02-18T05:37:18.715Z,2.37
2023-02-18T05:39:49.817Z,2.20
2023-02-18T05:42:23.622Z,2.00
2023-02-18T05:44:54.425Z,1.50
2023-02-18T05:47:25.371Z,1.70
2023-02-18T05:49:56.222Z,1.67
2023-02-18T05:52:27.082Z,1.30
2023-02-18T05:54:57.992Z,1.40
2023-02-18T05:57:31.364Z,1.37
2023-02-18T06:00:09.326Z,1.40
2023-02-18T06:02:42.994Z,1.20
2023-02-18T06:05:16.403Z,1.40
2023-02-18T06:07:47.312Z,1.30
2023-02-18T06:10:21.327Z,1.13
2023-02-18T06:12:54.662Z,1.40
2023-02-18T06:15:25.397Z,1.60
2023-02-18T06:17:57.069Z,1.30
2023-02-18T06:20:27.801Z,1.37
2023-02-18T06:22:58.607Z,1.43
2023-02-18T06:25:29.366Z,1.67
2023-02-18T06:28:06.014Z,1.40
2023-02-18T06:30:36.996Z,1.50
2023-02-18T06:33:07.952Z,1.67
2023-02-18T06:35:39.845Z,1.70
2023-02-18T06:38:17.981Z,1.70
2023-02-18T06:40:50.226Z,1.83
2023-02-18T06:43:24.328Z,2.00
2023-02-18T06:45:57.760Z,1.93
2023-02-18T06:48:31.422Z,2.33
2023-02-18T06:51:02.713Z,2.00
2023-02-18T06:53:33.432Z,2.20
2023-02-18T06:56:04.130Z,2.07
2023-02-18T06:58:37.646Z,2.20
2023-02-18T07:01:08.501Z,1.97
2023-02-18T07:03:39.456Z,2.50
2023-02-18T07:06:10.840Z,2.20
2023-02-18T07:08:45.048Z,2.40
2023-02-18T07:11:15.786Z,2.10
2023-02-18T07:13:49.283Z,2.30
2023-02-18T07:16:40.829Z,2.40
2023-02-18T07:19:12.833Z,2.20
2023-02-18T07:21:44.952Z,2.07
2023-02-18T07:24:15.750Z,1.93
2023-02-18T07:26:46.764Z,2.40
2023-02-18T07:29:23.706Z,2.40
2023-02-18T07:31:54.522Z,2.57
2023-02-18T07:34:25.270Z,2.30
2023-02-18T07:36:56.006Z,2.60
2023-02-18T07:39:27.112Z,2.60
2023-02-18T07:41:58.539Z,2.77
2023-02-18T07:44:32.233Z,3.30
2023-02-18T07:47:02.998Z,2.90
2023-02-18T07:49:33.994Z,2.33
2023-02-18T07:52:05.637Z,2.40
2023-02-18T07:54:42.190Z,2.67
2023-02-18T07:57:12.977Z,2.63
2023-02-18T07:59:48.444Z,2.70
2023-02-18T08:02:25.480Z,2.87
2023-02-18T08:04:59.102Z,2.77
2023-02-18T08:07:29.920Z,2.90
2023-02-18T08:10:03.570Z,2.50
2023-02-18T08:12:34.475Z,2.33
2023-02-18T08:15:08.734Z,2.57
2023-02-18T08:17:39.512Z,2.40
2023-02-18T08:20:11.314Z,1.57
2023-02-18T08:22:44.619Z,1.67
2023-02-18T08:25:27.668Z,1.37
2023-02-18T08:28:00.380Z,1.77
2023-02-18T08:30:36.765Z,1.43
2023-02-18T08:33:07.594Z,1.10
2023-02-18T08:35:38.406Z,1.20
2023-02-18T08:38:09.128Z,1.10
2023-02-18T08:40:40.902Z,1.10
2023-02-18T08:43:12.249Z,1.10
2023-02-18T08:45:46.763Z,1.00
2023-02-18T08:48:20.422Z,1.80
2023-02-18T08:50:51.550Z,1.00
2023-02-18T08:53:22.564Z,0.83
2023-02-18T08:55:53.495Z,0.93
2023-02-18T08:58:24.686Z,0.87
2023-02-18T09:00:58.125Z,1.17
2023-02-18T09:03:29.026Z,1.40
2023-02-18T09:06:00.197Z,1.10
2023-02-18T09:08:32.209Z,1.40
2023-02-18T09:11:08.301Z,2.00
2023-02-18T09:13:39.371Z,1.80
2023-02-18T09:16:15.775Z,2.00
2023-02-18T09:18:47.292Z,2.10
2023-02-18T09:21:20.821Z,2.20
2023-02-18T09:23:51.916Z,1.90
2023-02-18T09:26:26.290Z,2.33
2023-02-18T09:28:59.217Z,2.50
2023-02-18T09:31:35.922Z,2.47
2023-02-18T09:34:10.200Z,2.13
2023-02-18T09:36:42.191Z,2.80
2023-02-18T09:39:13.992Z,2.60
2023-02-18T09:41:46.498Z,2.10
2023-02-18T09:44:22.470Z,2.47
2023-02-18T09:47:01.902Z,3.13
2023-02-18T09:49:36.729Z,7.30
2023-02-18T09:52:15.385Z,7.50
2023-02-18T09:54:46.226Z,4.53
2023-02-18T09:57:25.500Z,5.33
2023-02-18T10:00:04.930Z,12.40
2023-02-18T10:02:42.366Z,3.53
2023-02-18T10:05:18.122Z,3.57
2023-02-18T10:07:51.216Z,4.20
2023-02-18T10:10:27.033Z,3.77
2023-02-18T10:12:59.518Z,3.90
2023-02-18T10:15:33.173Z,3.80
2023-02-18T10:18:08.834Z,3.73
2023-02-18T10:20:39.686Z,3.40
2023-02-18T10:23:13.127Z,3.63
2023-02-18T10:25:51.381Z,3.60
2023-02-18T10:28:26.525Z,3.47
2023-02-18T10:31:03.587Z,3.73
2023-02-18T10:33:48.620Z,3.87
2023-02-18T10:36:27.571Z,3.50
2023-02-18T10:43:06.785Z,3.50
2023-02-18T10:45:45.244Z,3.40
2023-02-18T10:48:53.888Z,3.40
2023-02-18T10:51:28.389Z,4.00
2023-02-18T10:53:59.460Z,3.83
2023-02-18T10:56:38.128Z,4.13
2023-02-18T10:59:23.244Z,4.20
2023-02-18T11:01:59.279Z,3.60
2023-02-18T11:04:39.683Z,3.80
2023-02-18T11:07:18.129Z,3.83
2023-02-18T11:09:51.719Z,4.17
2023-02-18T11:12:26.008Z,4.40
2023-02-18T11:15:20.284Z,3.80
2023-02-18T11:17:54.004Z,4.50
2023-02-18T11:20:35.421Z,4.00
2023-02-18T11:23:20.600Z,4.53
2023-02-18T11:26:01.266Z,4.40
2023-02-18T11:28:45.224Z,4.30
2023-02-18T11:31:24.941Z,4.67
2023-02-18T11:34:00.885Z,3.97
2023-02-18T11:36:36.155Z,6.10
2023-02-18T11:39:11.850Z,5.60
2023-02-18T11:41:45.203Z,4.60
2023-02-18T11:44:24.830Z,3.93
2023-02-18T11:47:04.770Z,4.10
2023-02-18T11:49:37.629Z,3.87
2023-02-18T11:52:20.839Z,6.03
2023-02-18T11:55:04.740Z,4.53
2023-02-18T11:57:51.580Z,3.30
2023-02-18T12:00:26.869Z,4.33
2023-02-18T12:03:02.184Z,4.47
2023-02-18T12:05:35.582Z,4.63
2023-02-18T12:08:17.211Z,4.00
2023-02-18T12:10:51.320Z,4.60
2023-02-18T12:13:28.354Z,5.50
2023-02-18T12:16:12.040Z,5.30
2023-02-18T12:19:17.605Z,5.20
2023-02-18T12:22:15.508Z,4.90
2023-02-18T12:25:06.705Z,4.80
2023-02-18T12:27:43.577Z,5.73
2023-02-18T12:30:35.308Z,5.73
2023-02-18T12:33:15.268Z,5.87
2023-02-18T12:36:02.749Z,6.00
2023-02-18T12:38:57.095Z,6.33
2023-02-18T12:41:58.567Z,6.00
2023-02-18T12:44:38.816Z,6.10
2023-02-18T12:47:39.459Z,6.33
2023-02-18T12:50:36.515Z,5.80
2023-02-18T12:53:29.608Z,7.40
2023-02-18T12:56:28.244Z,7.07
2023-02-18T12:59:07.838Z,7.67
2023-02-18T13:01:49.313Z,8.43
2023-02-18T13:04:47.525Z,7.40
2023-02-18T13:07:42.888Z,7.07
2023-02-18T13:10:52.873Z,8.30
2023-02-18T13:13:26.545Z,7.80
2023-02-18T13:16:07.068Z,7.57
2023-02-18T13:18:40.631Z,7.97
2023-02-18T13:21:15.026Z,9.17
2023-02-18T13:23:52.388Z,8.57
2023-02-18T13:26:27.729Z,9.60
2023-02-18T13:29:18.932Z,9.50
2023-02-18T13:32:04.287Z,10.40
2023-02-18T13:34:39.617Z,9.20
2023-02-18T13:37:19.177Z,9.70
2023-02-18T13:39:54.476Z,10.03
2023-02-18T13:42:30.375Z,9.90
2023-02-18T13:45:28.495Z,10.30
2023-02-18T13:48:02.405Z,9.33
2023-02-18T13:50:42.824Z,10.60
2023-02-18T13:53:56.003Z,9.40
2023-02-18T13:56:32.478Z,8.73
2023-02-18T13:59:10.684Z,9.10
2023-02-18T14:01:44.473Z,8.73
2023-02-18T14:04:45.421Z,9.67
2023-02-18T14:07:47.747Z,9.10
2023-02-18T14:11:01.057Z,9.43
2023-02-18T14:13:43.279Z,9.73
2023-02-18T14:16:17.269Z,9.03
2023-02-18T14:19:03.166Z,9.97
2023-02-18T14:21:45.355Z,11.90
2023-02-18T14:24:50.489Z,11.30
2023-02-18T14:27:21.619Z,12.43
2023-02-18T14:29:55.030Z,12.30
2023-02-18T14:32:26.593Z,12.80
2023-02-18T14:35:20.478Z,14.27
2023-02-18T14:38:15.619Z,14.03
2023-02-18T14:41:07.477Z,15.47
2023-02-18T14:43:55.078Z,14.80
2023-02-18T14:46:37.632Z,15.87
2023-02-18T14:49:34.348Z,16.73
2023-02-18T14:52:07.182Z,17.70
2023-02-18T14:54:41.443Z,19.93
2023-02-18T14:57:20.358Z,18.30
2023-02-18T14:59:51.545Z,20.67
2023-02-18T15:02:28.455Z,20.07
2023-02-18T15:05:14.996Z,19.50
2023-02-18T15:07:56.989Z,22.07
2023-02-18T15:10:33.503Z,21.07
2023-02-18T15:13:10.222Z,20.80
2023-02-18T15:15:41.249Z,19.77
2023-02-18T15:18:20.213Z,19.30
2023-02-18T15:20:51.389Z,19.43
2023-02-18T15:23:22.234Z,20.37
2023-02-18T15:25:55.418Z,19.30
2023-02-18T15:28:31.660Z,18.40
2023-02-18T15:31:04.184Z,20.20
2023-02-18T15:33:35.022Z,21.43
2023-02-18T15:36:17.235Z,22.20
2023-02-18T15:38:48.041Z,20.40
2023-02-18T15:41:22.735Z,18.73
2023-02-18T15:44:06.173Z,19.13
2023-02-18T15:46:37.803Z,19.20
2023-02-18T15:49:13.017Z,18.43
2023-02-18T15:51:46.238Z,18.90
2023-02-18T15:54:25.960Z,18.83
2023-02-18T15:56:59.158Z,18.37
2023-02-18T15:59:35.868Z,19.67
2023-02-18T16:02:18.991Z,23.30
2023-02-18T16:04:52.938Z,23.93
2023-02-18T16:07:26.971Z,18.40
2023-02-18T16:10:18.914Z,18.93
2023-02-18T16:12:54.061Z,18.20
2023-02-18T16:15:32.762Z,18.93
2023-02-18T16:18:22.118Z,18.10
2023-02-18T16:20:59.961Z,18.00
2023-02-18T16:23:38.632Z,17.40
2023-02-18T16:26:21.600Z,19.60
2023-02-18T16:28:55.480Z,19.70
2023-02-18T16:31:34.569Z,18.43
2023-02-18T16:34:05.750Z,18.67
2023-02-18T16:36:59.500Z,21.70
2023-02-18T16:39:31.225Z,20.03
2023-02-18T16:44:48.257Z,20.20
2023-02-18T16:47:23.047Z,22.63
2023-02-18T16:49:55.250Z,21.40
2023-02-18T16:52:25.975Z,20.77
2023-02-18T16:54:58.693Z,23.47
2023-02-18T16:57:29.612Z,23.20
2023-02-18T17:00:04.096Z,22.13
2023-02-18T17:02:39.655Z,23.87
2023-02-18T17:05:25.440Z,22.93
2023-02-18T17:07:58.299Z,23.00
2023-02-18T17:10:29.216Z,21.93
2023-02-18T17:12:59.949Z,22.40
2023-02-18T17:15:38.017Z,21.80
2023-02-18T17:21:09.178Z,19.60
2023-02-18T17:23:43.940Z,21.30
2023-02-18T17:26:21.363Z,19.90
2023-02-18T17:28:55.593Z,18.80
2023-02-18T17:31:28.730Z,18.60
2023-02-18T17:34:08.178Z,20.07
2023-02-18T17:36:39.617Z,20.13
2023-02-18T17:39:15.420Z,18.57
2023-02-18T17:41:46.351Z,19.87
2023-02-18T17:44:22.183Z,18.80
2023-02-18T17:46:54.877Z,19.57
2023-02-18T17:49:28.251Z,19.30
2023-02-18T17:51:59.222Z,19.60
2023-02-18T17:54:30.093Z,18.77
2023-02-18T17:57:00.829Z,21.27
2023-02-18T17:59:31.748Z,17.60
2023-02-18T18:02:02.903Z,17.87
2023-02-18T18:04:36.417Z,16.20
2023-02-18T18:07:10.177Z,16.67
2023-02-18T18:09:41.005Z,16.90
2023-02-18T18:12:16.605Z,17.33
2023-02-18T18:14:50.259Z,18.80
2023-02-18T18:17:20.990Z,18.17
2023-02-18T18:19:54.342Z,18.53
2023-02-18T18:22:25.261Z,18.57
2023-02-18T18:24:56.118Z,18.40
2023-02-18T18:27:29.901Z,18.23
2023-02-18T18:30:04.965Z,18.90
2023-02-18T18:32:35.883Z,19.27
